Time;durP1;ratioP1;P1;durP2;ratioP2;P2;SDS_P1;SDS_P2;PMS_P1;PMS_P2;Temp;Humidity;BMP_temperature;BMP_pressure;BME280_temperature;BME280_humidity;BME280_pressure;Samples;Min_cycle;Max_cycle;Signal;HPM_P1;HPM_P2
2022/03/28 00:00:06;;;;;;;38.57;34.27;;;;;;;;;;4959209;29;20897;-85
2022/03/28 00:02:34;;;;;;;35.40;32.10;;;;;;;;;;4957999;29;20469;-85
2022/03/28 00:05:01;;;;;;;37.00;33.17;;;;;;;;;;4961513;29;20422;-85
2022/03/28 00:07:30;;;;;;;37.93;33.93;;;;;;;;;;4961762;29;20515;-85
2022/03/28 00:09:57;;;;;;;43.13;35.87;;;;;;;;;;4956921;29;20447;-85
2022/03/28 00:12:25;;;;;;;39.40;33.60;;;;;;;;;;4957337;29;20430;-83
2022/03/28 00:14:52;;;;;;;37.77;33.77;;;;;;;;;;4956771;29;20399;-84
2022/03/28 00:17:19;;;;;;;37.03;33.27;;;;;;;;;;4956501;29;20432;-85
2022/03/28 00:19:47;;;;;;;40.08;35.60;;;;;;;;;;4956876;29;20418;-85
2022/03/28 00:22:14;;;;;;;38.77;34.40;;;;;;;;;;4956694;29;20196;-85
2022/03/28 00:24:43;;;;;;;39.05;34.25;;;;;;;;;;4956939;28;20804;-84
2022/03/28 00:27:10;;;;;;;38.60;34.57;;;;;;;;;;4956920;29;20195;-85
2022/03/28 00:29:37;;;;;;;41.28;36.58;;;;;;;;;;4957529;29;20430;-85
2022/03/28 00:32:05;;;;;;;36.72;32.88;;;;;;;;;;4958115;29;20279;-85
2022/03/28 00:34:32;;;;;;;38.63;34.65;;;;;;;;;;4956466;29;20223;-85
2022/03/28 00:37:00;;;;;;;37.15;33.25;;;;;;;;;;4956533;29;20200;-85
2022/03/28 00:39:27;;;;;;;36.87;32.00;;;;;;;;;;4956509;29;20196;-85
2022/03/28 00:41:56;;;;;;;39.47;35.00;;;;;;;;;;4956457;29;20918;-84
2022/03/28 00:44:23;;;;;;;39.50;35.20;;;;;;;;;;4956303;29;20411;-85
2022/03/28 00:46:51;;;;;;;39.83;35.45;;;;;;;;;;4956187;29;20447;-85
2022/03/28 00:49:18;;;;;;;37.87;33.83;;;;;;;;;;4956070;29;20634;-85
2022/03/28 00:51:46;;;;;;;39.58;35.25;;;;;;;;;;4956066;29;20470;-85
2022/03/28 00:54:13;;;;;;;37.07;32.83;;;;;;;;;;4956400;29;20207;-85
2022/03/28 00:56:42;;;;;;;37.63;33.60;;;;;;;;;;4956204;29;20467;-85
2022/03/28 00:59:12;;;;;;;38.17;33.80;;;;;;;;;;4956197;29;20199;-85
2022/03/28 01:01:40;;;;;;;40.30;34.50;;;;;;;;;;4955878;29;20916;-86
2022/03/28 01:04:08;;;;;;;36.70;32.70;;;;;;;;;;4955828;29;20440;-85
2022/03/28 01:06:37;;;;;;;41.87;35.77;;;;;;;;;;4955904;29;20509;-85
2022/03/28 01:09:04;;;;;;;39.07;34.43;;;;;;;;;;4955864;29;20438;-85
2022/03/28 01:11:33;;;;;;;41.10;36.83;;;;;;;;;;4955645;29;20574;-85
2022/03/28 01:14:00;;;;;;;37.87;33.87;;;;;;;;;;4955476;29;20487;-85
2022/03/28 01:16:31;;;;;;;41.77;36.80;;;;;;;;;;4955577;29;20440;-85
2022/03/28 01:18:57;;;;;;;42.90;36.47;;;;;;;;;;4955979;29;20436;-86
2022/03/28 01:21:26;;;;;;;41.00;35.17;;;;;;;;;;4955849;29;20454;-85
2022/03/28 01:23:53;;;;;;;42.03;35.10;;;;;;;;;;4955627;29;20200;-85
2022/03/28 01:26:21;;;;;;;42.40;36.90;;;;;;;;;;4956007;29;20450;-85
2022/03/28 01:28:48;;;;;;;38.50;33.90;;;;;;;;;;4955609;29;20836;-85
2022/03/28 01:31:16;;;;;;;39.23;34.83;;;;;;;;;;4955706;29;21009;-85
2022/03/28 01:33:43;;;;;;;41.63;34.10;;;;;;;;;;4955338;29;20937;-86
2022/03/28 01:36:10;;;;;;;40.20;34.25;;;;;;;;;;4955695;29;20407;-84
2022/03/28 01:38:39;;;;;;;38.20;34.20;;;;;;;;;;4954852;28;20202;-86
2022/03/28 01:41:06;;;;;;;36.67;32.80;;;;;;;;;;4955490;29;20196;-86
2022/03/28 01:43:34;;;;;;;37.85;33.63;;;;;;;;;;4955185;29;20431;-85
2022/03/28 01:46:01;;;;;;;39.30;35.10;;;;;;;;;;4955139;29;20200;-85
2022/03/28 01:48:29;;;;;;;40.23;33.77;;;;;;;;;;4955353;28;20223;-85
2022/03/28 01:50:56;;;;;;;37.57;33.47;;;;;;;;;;4955546;29;20475;-85
2022/03/28 01:53:24;;;;;;;36.77;33.00;;;;;;;;;;4954936;29;20459;-85
2022/03/28 01:55:52;;;;;;;37.92;33.92;;;;;;;;;;4954941;29;20419;-85
2022/03/28 01:58:20;;;;;;;37.35;33.47;;;;;;;;;;4955281;29;20563;-85
2022/03/28 02:00:47;;;;;;;38.20;34.20;;;;;;;;;;4955339;29;20200;-85
2022/03/28 02:03:14;;;;;;;37.95;32.40;;;;;;;;;;4955162;29;20444;-86
2022/03/28 02:05:42;;;;;;;39.57;34.87;;;;;;;;;;4955391;29;20199;-85
2022/03/28 02:08:09;;;;;;;39.13;34.80;;;;;;;;;;4955054;29;20487;-85
2022/03/28 02:10:36;;;;;;;38.13;33.67;;;;;;;;;;4954781;29;20613;-85
2022/03/28 02:13:05;;;;;;;36.53;32.60;;;;;;;;;;4954959;29;20455;-85
2022/03/28 02:15:33;;;;;;;42.33;34.20;;;;;;;;;;4955155;29;20774;-85
2022/03/28 02:18:00;;;;;;;36.77;32.87;;;;;;;;;;4954885;29;20452;-84
2022/03/28 02:20:27;;;;;;;41.88;35.63;;;;;;;;;;4955018;29;20426;-85
2022/03/28 02:22:55;;;;;;;40.77;33.27;;;;;;;;;;4954907;29;20200;-85
2022/03/28 02:25:22;;;;;;;40.90;34.78;;;;;;;;;;4955155;29;20418;-86
2022/03/28 02:27:49;;;;;;;39.00;33.83;;;;;;;;;;4955041;29;20196;-86
2022/03/28 02:30:18;;;;;;;39.00;34.47;;;;;;;;;;4954774;29;20907;-86
2022/03/28 02:32:45;;;;;;;42.30;35.97;;;;;;;;;;4954753;29;20462;-85
2022/03/28 02:35:13;;;;;;;36.50;32.50;;;;;;;;;;4955155;29;20429;-85
2022/03/28 02:37:40;;;;;;;37.40;32.87;;;;;;;;;;4955053;29;20429;-86
2022/03/28 02:40:08;;;;;;;40.03;34.47;;;;;;;;;;4954730;29;20443;-85
2022/03/28 02:42:35;;;;;;;38.17;33.83;;;;;;;;;;4954858;29;20291;-85
2022/03/28 02:45:03;;;;;;;46.67;35.10;;;;;;;;;;4954900;29;20196;-85
2022/03/28 02:47:32;;;;;;;37.50;33.53;;;;;;;;;;4954799;28;20465;-85
2022/03/28 02:49:59;;;;;;;37.47;33.43;;;;;;;;;;4957949;28;20196;-86
2022/03/28 02:52:26;;;;;;;43.20;35.35;;;;;;;;;;4958454;29;20461;-85
2022/03/28 02:54:55;;;;;;;37.75;33.70;;;;;;;;;;4958050;29;20192;-85
2022/03/28 02:57:22;;;;;;;40.90;34.50;;;;;;;;;;4958136;29;20196;-84
2022/03/28 02:59:50;;;;;;;38.45;34.03;;;;;;;;;;4958060;29;20413;-85
2022/03/28 03:02:17;;;;;;;40.60;36.30;;;;;;;;;;4958326;29;20547;-84
2022/03/28 03:04:46;;;;;;;36.28;32.53;;;;;;;;;;4958567;29;20192;-85
2022/03/28 03:07:14;;;;;;;40.97;34.65;;;;;;;;;;4959656;29;20231;-85
2022/03/28 03:09:41;;;;;;;38.03;33.22;;;;;;;;;;4957959;29;20196;-85
2022/03/28 03:12:09;;;;;;;41.97;34.70;;;;;;;;;;4958192;29;20570;-86
2022/03/28 03:14:36;;;;;;;42.00;35.75;;;;;;;;;;4958058;29;20196;-86
2022/03/28 03:17:04;;;;;;;40.00;35.10;;;;;;;;;;4958186;29;20202;-86
2022/03/28 03:19:31;;;;;;;39.23;34.80;;;;;;;;;;4958065;29;20198;-86
2022/03/28 03:22:00;;;;;;;38.35;34.00;;;;;;;;;;4958127;29;20433;-86
2022/03/28 03:24:27;;;;;;;39.88;33.92;;;;;;;;;;4957830;29;20196;-86
2022/03/28 03:26:55;;;;;;;38.92;34.72;;;;;;;;;;4957840;29;20198;-86
2022/03/28 03:29:22;;;;;;;39.90;34.63;;;;;;;;;;4957643;29;20203;-85
2022/03/28 03:31:49;;;;;;;43.20;36.20;;;;;;;;;;4957742;29;20216;-86
2022/03/28 03:34:17;;;;;;;41.13;36.67;;;;;;;;;;4958012;29;20199;-85
2022/03/28 03:36:45;;;;;;;39.67;35.28;;;;;;;;;;4957930;29;20267;-86
2022/03/28 03:39:14;;;;;;;42.00;35.15;;;;;;;;;;4957499;29;20192;-85
2022/03/28 03:41:41;;;;;;;42.15;35.75;;;;;;;;;;4957737;29;20200;-86
2022/03/28 03:44:09;;;;;;;40.95;35.10;;;;;;;;;;4957500;29;20192;-86
2022/03/28 03:46:36;;;;;;;40.78;36.15;;;;;;;;;;4957788;29;20584;-85
2022/03/28 03:49:03;;;;;;;49.15;38.83;;;;;;;;;;4957590;28;20227;-86
2022/03/28 03:51:31;;;;;;;38.97;34.63;;;;;;;;;;4957253;29;20224;-86
2022/03/28 03:53:58;;;;;;;43.25;35.30;;;;;;;;;;4957442;29;20451;-86
2022/03/28 03:56:28;;;;;;;43.10;36.27;;;;;;;;;;4957363;29;20551;-86
2022/03/28 03:58:55;;;;;;;43.40;35.33;;;;;;;;;;4957489;29;20538;-85
2022/03/28 04:01:23;;;;;;;44.78;36.53;;;;;;;;;;4956706;28;20455;-85
2022/03/28 04:03:50;;;;;;;48.17;36.47;;;;;;;;;;4957079;29;20223;-86
2022/03/28 04:06:17;;;;;;;41.20;34.15;;;;;;;;;;4957237;29;20539;-86
2022/03/28 04:08:45;;;;;;;45.20;35.80;;;;;;;;;;4956683;29;20246;-86
2022/03/28 04:11:12;;;;;;;40.67;34.03;;;;;;;;;;4956895;29;20192;-86
2022/03/28 04:13:41;;;;;;;50.90;35.73;;;;;;;;;;4956769;29;20905;-86
2022/03/28 04:16:08;;;;;;;55.00;37.95;;;;;;;;;;4957151;29;20765;-86
2022/03/28 04:18:36;;;;;;;47.22;35.53;;;;;;;;;;4956955;29;20192;-85
2022/03/28 04:21:03;;;;;;;44.40;37.00;;;;;;;;;;4956947;29;20219;-85
2022/03/28 04:23:30;;;;;;;49.35;39.10;;;;;;;;;;4956784;29;20200;-86
2022/03/28 04:25:58;;;;;;;42.13;35.72;;;;;;;;;;4956590;29;20661;-85
2022/03/28 04:28:25;;;;;;;45.90;36.50;;;;;;;;;;4956759;29;20207;-85
2022/03/28 04:30:54;;;;;;;47.90;34.58;;;;;;;;;;4956744;29;20192;-86
2022/03/28 04:33:21;;;;;;;44.63;35.63;;;;;;;;;;4956610;29;20222;-85
2022/03/28 04:35:49;;;;;;;42.53;37.43;;;;;;;;;;4956570;29;20233;-86
2022/03/28 04:38:16;;;;;;;44.27;36.90;;;;;;;;;;4956295;29;20444;-85
2022/03/28 04:40:43;;;;;;;42.38;35.20;;;;;;;;;;4956258;29;20436;-86
2022/03/28 04:43:11;;;;;;;45.38;36.53;;;;;;;;;;4956350;29;20197;-86
2022/03/28 04:45:38;;;;;;;49.57;36.00;;;;;;;;;;4956279;29;20646;-85
2022/03/28 04:48:07;;;;;;;40.13;35.38;;;;;;;;;;4956223;28;20491;-86
2022/03/28 04:50:34;;;;;;;43.93;37.60;;;;;;;;;;4956568;29;20199;-86
2022/03/28 04:53:02;;;;;;;44.40;35.70;;;;;;;;;;4956450;29;20461;-85
2022/03/28 04:55:29;;;;;;;48.47;38.75;;;;;;;;;;4955993;29;20437;-86
2022/03/28 04:57:56;;;;;;;53.38;38.08;;;;;;;;;;4956279;29;20251;-86
2022/03/28 05:00:23;;;;;;;46.83;38.80;;;;;;;;;;4956283;29;20211;-86
2022/03/28 05:02:51;;;;;;;43.50;36.07;;;;;;;;;;4955943;29;20196;-85
2022/03/28 05:05:20;;;;;;;53.58;37.92;;;;;;;;;;4956336;29;20447;-86
2022/03/28 05:07:47;;;;;;;48.58;35.95;;;;;;;;;;4955771;29;20325;-85
2022/03/28 05:10:14;;;;;;;52.70;38.40;;;;;;;;;;4956059;29;20196;-86
2022/03/28 05:12:42;;;;;;;48.10;36.22;;;;;;;;;;4955202;28;20223;-86
2022/03/28 05:15:10;;;;;;;50.40;37.97;;;;;;;;;;4955779;29;20195;-86
2022/03/28 05:17:37;;;;;;;44.83;34.95;;;;;;;;;;4955607;29;20193;-85
2022/03/28 05:20:05;;;;;;;39.90;34.40;;;;;;;;;;4955913;29;20193;-86
2022/03/28 05:22:34;;;;;;;44.70;35.63;;;;;;;;;;4955639;29;20483;-85
2022/03/28 05:25:02;;;;;;;43.07;35.30;;;;;;;;;;4956541;29;20425;-95
2022/03/28 05:27:30;;;;;;;47.00;37.90;;;;;;;;;;4957337;29;20454;-94
2022/03/28 05:29:57;;;;;;;48.10;37.75;;;;;;;;;;4958210;29;20196;-87
2022/03/28 05:32:24;;;;;;;44.63;36.67;;;;;;;;;;4955676;29;20220;-86
2022/03/28 05:34:52;;;;;;;45.17;36.43;;;;;;;;;;4956089;29;20422;-85
2022/03/28 05:37:20;;;;;;;49.15;37.88;;;;;;;;;;4956597;29;20429;-95
2022/03/28 05:39:49;;;;;;;46.35;37.20;;;;;;;;;;4957749;29;20287;-94
2022/03/28 05:42:17;;;;;;;44.37;37.07;;;;;;;;;;4958068;28;20224;-94
2022/03/28 05:44:45;;;;;;;54.10;36.92;;;;;;;;;;4956628;29;20453;-96
2022/03/28 05:47:12;;;;;;;54.28;38.03;;;;;;;;;;4957086;29;20203;-94
2022/03/28 05:49:40;;;;;;;45.42;38.33;;;;;;;;;;4956939;29;20196;-96
2022/03/28 05:52:08;;;;;;;44.65;36.05;;;;;;;;;;4957390;29;20670;-96
2022/03/28 05:54:36;;;;;;;48.27;35.90;;;;;;;;;;4957456;29;20283;-94
2022/03/28 05:57:05;;;;;;;52.72;39.22;;;;;;;;;;4940886;29;20427;-94
2022/03/28 05:59:33;;;;;;;55.93;38.73;;;;;;;;;;4958148;29;20196;-96
2022/03/28 06:02:00;;;;;;;44.70;37.05;;;;;;;;;;4940245;29;20430;-96
2022/03/28 06:04:28;;;;;;;51.17;36.42;;;;;;;;;;4958105;29;20207;-94
2022/03/28 06:06:55;;;;;;;55.85;40.53;;;;;;;;;;4967584;29;20235;-96
2022/03/28 06:09:23;;;;;;;49.38;40.03;;;;;;;;;;4960381;29;20207;-96
2022/03/28 06:11:50;;;;;;;52.88;39.10;;;;;;;;;;4956724;29;20215;-93
2022/03/28 06:14:19;;;;;;;54.37;40.40;;;;;;;;;;4955685;29;20212;-96
2022/03/28 06:16:46;;;;;;;54.05;40.00;;;;;;;;;;4956083;29;20790;-96
2022/03/28 06:19:14;;;;;;;47.72;37.95;;;;;;;;;;4940084;29;20192;-94
2022/03/28 06:21:41;;;;;;;47.67;40.03;;;;;;;;;;4956404;29;20188;-93
2022/03/28 06:24:09;;;;;;;57.00;42.13;;;;;;;;;;4957637;28;20209;-95
2022/03/28 06:26:36;;;;;;;53.63;41.78;;;;;;;;;;4959626;29;20199;-94
2022/03/28 06:29:04;;;;;;;51.77;39.23;;;;;;;;;;4961567;29;20655;-93
2022/03/28 06:31:33;;;;;;;48.63;38.77;;;;;;;;;;4960349;29;20494;-86
2022/03/28 06:34:02;;;;;;;51.73;39.03;;;;;;;;;;4960758;29;20877;-91
2022/03/28 06:36:30;;;;;;;50.05;37.80;;;;;;;;;;4960736;29;20434;-93
2022/03/28 06:38:57;;;;;;;53.08;39.35;;;;;;;;;;4960908;29;20207;-94
2022/03/28 06:41:25;;;;;;;48.87;38.70;;;;;;;;;;4961028;28;20227;-94
2022/03/28 06:43:52;;;;;;;49.50;38.90;;;;;;;;;;4959908;29;20426;-94
2022/03/28 06:46:21;;;;;;;52.47;41.10;;;;;;;;;;4959993;29;20436;-92
2022/03/28 06:48:52;;;;;;;50.23;39.07;;;;;;;;;;4959262;29;20481;-93
2022/03/28 06:51:19;;;;;;;54.80;41.10;;;;;;;;;;4942147;29;20459;-93
2022/03/28 06:53:48;;;;;;;48.53;39.37;;;;;;;;;;4958803;29;20590;-92
2022/03/28 06:56:16;;;;;;;49.60;39.73;;;;;;;;;;4941806;29;20463;-92
2022/03/28 06:58:43;;;;;;;52.83;39.67;;;;;;;;;;4959219;29;20466;-92
2022/03/28 07:01:11;;;;;;;47.40;41.30;;;;;;;;;;4959379;29;20481;-93
2022/03/28 07:03:38;;;;;;;52.07;39.10;;;;;;;;;;4959109;29;20776;-91
2022/03/28 07:06:08;;;;;;;50.00;39.50;;;;;;;;;;4958854;29;20984;-94
2022/03/28 07:08:36;;;;;;;50.60;39.20;;;;;;;;;;4941580;29;20493;-93
2022/03/28 07:11:03;;;;;;;52.50;39.13;;;;;;;;;;4958778;29;20426;-92
2022/03/28 07:13:31;;;;;;;49.43;39.60;;;;;;;;;;4958847;29;20491;-88
2022/03/28 07:15:58;;;;;;;50.13;40.73;;;;;;;;;;4959314;29;20455;-96
2022/03/28 07:18:26;;;;;;;50.90;39.80;;;;;;;;;;4959111;29;20432;-92
2022/03/28 07:20:53;;;;;;;48.43;39.37;;;;;;;;;;4959088;29;20531;-92
2022/03/28 07:23:22;;;;;;;46.30;39.17;;;;;;;;;;4958856;29;20440;-92
2022/03/28 07:25:50;;;;;;;50.00;39.97;;;;;;;;;;4958869;29;20452;-92
2022/03/28 07:28:18;;;;;;;52.33;40.57;;;;;;;;;;4958724;29;20469;-93
2022/03/28 07:30:46;;;;;;;50.00;41.40;;;;;;;;;;4941514;29;20456;-92
2022/03/28 07:33:13;;;;;;;51.33;41.93;;;;;;;;;;4992461;28;20470;-88
2022/03/28 07:35:41;;;;;;;45.47;40.53;;;;;;;;;;4996174;28;20424;-91
2022/03/28 07:38:10;;;;;;;50.57;38.40;;;;;;;;;;4996975;28;20810;-86
2022/03/28 07:40:40;;;;;;;46.00;40.47;;;;;;;;;;4996977;28;20484;-90
2022/03/28 07:43:08;;;;;;;46.03;38.87;;;;;;;;;;4997424;28;20500;-90
2022/03/28 07:45:37;;;;;;;49.40;40.70;;;;;;;;;;4996816;28;20565;-90
2022/03/28 07:48:05;;;;;;;48.97;40.30;;;;;;;;;;4997477;28;20782;-94
2022/03/28 07:50:32;;;;;;;46.00;40.70;;;;;;;;;;4997242;28;20447;-92
2022/03/28 07:52:59;;;;;;;43.40;38.80;;;;;;;;;;4996457;28;20485;-91
2022/03/28 07:55:28;;;;;;;43.93;38.57;;;;;;;;;;4998958;28;20928;-93
2022/03/28 07:57:59;;;;;;;41.63;35.97;;;;;;;;;;4998209;28;20428;-92
2022/03/28 08:00:27;;;;;;;44.97;39.70;;;;;;;;;;4999540;28;20438;-94
2022/03/28 08:02:55;;;;;;;39.00;34.70;;;;;;;;;;4999753;28;20470;-91
2022/03/28 08:05:22;;;;;;;41.77;36.90;;;;;;;;;;4997526;28;20450;-93
2022/03/28 08:07:50;;;;;;;46.43;37.30;;;;;;;;;;4997150;28;20496;-92
2022/03/28 08:10:18;;;;;;;44.50;38.83;;;;;;;;;;4999737;28;20430;-94
2022/03/28 08:12:45;;;;;;;50.90;37.50;;;;;;;;;;4997928;28;20539;-92
2022/03/28 08:15:15;;;;;;;43.37;38.50;;;;;;;;;;4997007;28;20468;-92
2022/03/28 08:17:43;;;;;;;43.97;38.73;;;;;;;;;;4996948;28;20928;-90
2022/03/28 08:20:11;;;;;;;43.47;38.87;;;;;;;;;;4995489;28;20428;-91
2022/03/28 08:22:39;;;;;;;49.20;40.80;;;;;;;;;;4995933;28;20458;-89
2022/03/28 08:25:07;;;;;;;45.27;39.93;;;;;;;;;;4995856;28;20412;-92
2022/03/28 08:27:35;;;;;;;44.13;37.93;;;;;;;;;;4995665;28;20458;-87
2022/03/28 08:30:02;;;;;;;46.17;37.83;;;;;;;;;;4996227;28;20919;-90
2022/03/28 08:32:31;;;;;;;40.53;36.33;;;;;;;;;;4996249;28;20413;-89
2022/03/28 08:34:59;;;;;;;59.37;41.60;;;;;;;;;;4994329;28;20832;-94
2022/03/28 08:37:27;;;;;;;42.87;38.03;;;;;;;;;;4995464;28;20438;-94
2022/03/28 08:39:55;;;;;;;42.63;38.20;;;;;;;;;;4995746;28;20488;-94
2022/03/28 08:42:23;;;;;;;48.93;39.93;;;;;;;;;;4995985;28;20526;-94
2022/03/28 08:44:59;;;;;;;41.37;37.10;;;;;;;;;;4997919;28;20454;-95
2022/03/28 08:47:28;;;;;;;42.03;37.67;;;;;;;;;;4996751;28;20858;-90
2022/03/28 08:49:57;;;;;;;47.20;39.57;;;;;;;;;;4996174;28;20516;-92
2022/03/28 08:52:24;;;;;;;41.73;37.23;;;;;;;;;;4999094;28;20464;-92
2022/03/28 08:54:58;;;;;;;40.87;36.83;;;;;;;;;;4995157;28;20518;-92
2022/03/28 08:57:25;;;;;;;43.20;37.73;;;;;;;;;;4978672;28;20425;-91
2022/03/28 08:59:53;;;;;;;43.87;39.10;;;;;;;;;;4995985;28;20416;-93
2022/03/28 09:02:30;;;;;;;44.73;37.53;;;;;;;;;;4995528;28;20424;-93
2022/03/28 09:04:59;;;;;;;43.73;39.13;;;;;;;;;;4994821;28;20434;-87
2022/03/28 09:07:27;;;;;;;42.57;38.07;;;;;;;;;;4994663;28;20887;-89
2022/03/28 09:09:58;;;;;;;42.77;38.47;;;;;;;;;;4995564;28;20458;-92
2022/03/28 09:12:27;;;;;;;43.47;38.90;;;;;;;;;;4996880;28;20428;-92
2022/03/28 09:14:58;;;;;;;47.27;42.27;;;;;;;;;;5001505;28;20841;-92
2022/03/28 09:17:27;;;;;;;45.10;39.73;;;;;;;;;;4997577;28;20424;-95
2022/03/28 09:19:55;;;;;;;46.53;38.63;;;;;;;;;;4991114;28;20439;-95
2022/03/28 09:22:25;;;;;;;47.80;38.20;;;;;;;;;;4997514;28;20425;-96
2022/03/28 09:24:53;;;;;;;41.77;37.37;;;;;;;;;;4979589;28;20429;-90
2022/03/28 09:27:22;;;;;;;49.53;40.17;;;;;;;;;;4987694;23;20473;-92
2022/03/28 09:29:54;;;;;;;42.83;38.53;;;;;;;;;;4938139;29;21092;-92
2022/03/28 09:32:22;;;;;;;43.10;38.47;;;;;;;;;;4937865;29;20423;-93
2022/03/28 09:35:03;;;;;;;44.17;39.63;;;;;;;;;;4938863;29;20515;-93
2022/03/28 09:37:32;;;;;;;42.93;38.27;;;;;;;;;;4938242;29;20476;-91
2022/03/28 09:40:00;;;;;;;44.60;39.70;;;;;;;;;;4939521;29;20932;-92
2022/03/28 09:42:27;;;;;;;43.43;38.77;;;;;;;;;;4938149;29;20437;-92
2022/03/28 09:44:55;;;;;;;45.37;40.50;;;;;;;;;;4937297;29;20913;-87
2022/03/28 09:47:23;;;;;;;47.90;39.17;;;;;;;;;;4940560;29;20452;-87
2022/03/28 09:49:54;;;;;;;44.63;38.67;;;;;;;;;;4937536;29;20415;-91
2022/03/28 09:52:22;;;;;;;41.90;37.20;;;;;;;;;;4937032;29;20518;-91
2022/03/28 09:54:52;;;;;;;43.50;36.80;;;;;;;;;;4920037;29;20993;-92
2022/03/28 09:57:22;;;;;;;41.47;37.07;;;;;;;;;;4937619;29;20502;-94
2022/03/28 09:59:49;;;;;;;43.20;38.50;;;;;;;;;;4950599;29;20539;-95
2022/03/28 10:02:18;;;;;;;45.03;39.40;;;;;;;;;;4953668;29;20436;-94
2022/03/28 10:04:46;;;;;;;45.43;40.53;;;;;;;;;;4951363;29;20453;-95
2022/03/28 10:07:14;;;;;;;40.43;36.13;;;;;;;;;;4944550;29;20426;-94
2022/03/28 10:09:41;;;;;;;42.67;38.20;;;;;;;;;;4926905;29;20803;-94
2022/03/28 10:12:11;;;;;;;39.40;35.10;;;;;;;;;;4928705;29;20484;-94
2022/03/28 10:14:39;;;;;;;40.60;36.40;;;;;;;;;;4952268;29;20474;-95
2022/03/28 10:17:07;;;;;;;40.93;36.53;;;;;;;;;;4932609;29;20460;-91
2022/03/28 10:19:36;;;;;;;38.60;34.73;;;;;;;;;;4924448;29;20533;-91
2022/03/28 10:22:05;;;;;;;39.17;35.20;;;;;;;;;;4926657;29;20461;-91
2022/03/28 10:24:34;;;;;;;42.30;36.37;;;;;;;;;;4924652;29;20539;-91
2022/03/28 10:27:03;;;;;;;41.43;37.23;;;;;;;;;;4923386;29;20550;-91
2022/03/28 10:29:37;;;;;;;45.83;37.57;;;;;;;;;;4923625;29;20456;-91
2022/03/28 10:32:08;;;;;;;43.30;38.40;;;;;;;;;;4924159;29;20442;-90
2022/03/28 10:34:45;;;;;;;40.23;36.20;;;;;;;;;;4923763;29;20488;-92
2022/03/28 10:37:25;;;;;;;39.83;36.03;;;;;;;;;;4923903;29;20472;-88
2022/03/28 10:39:53;;;;;;;40.90;36.70;;;;;;;;;;4923408;29;20472;-87
2022/03/28 10:42:26;;;;;;;42.43;37.83;;;;;;;;;;4923463;29;20473;-93
2022/03/28 10:45:04;;;;;;;40.57;36.57;;;;;;;;;;4906962;29;21089;-91
2022/03/28 10:47:44;;;;;;;42.33;37.83;;;;;;;;;;4924200;29;20441;-90
2022/03/28 10:50:12;;;;;;;40.50;36.40;;;;;;;;;;4924638;29;20449;-88
2022/03/28 10:52:39;;;;;;;39.30;35.20;;;;;;;;;;4924704;29;20436;-90
2022/03/28 10:55:08;;;;;;;43.10;38.70;;;;;;;;;;4924001;29;20475;-93
2022/03/28 10:57:36;;;;;;;42.10;37.77;;;;;;;;;;4937289;29;20400;-92
2022/03/28 11:00:17;;;;;;;45.03;40.43;;;;;;;;;;4939688;29;20451;-95
2022/03/28 11:02:45;;;;;;;39.80;35.80;;;;;;;;;;4938072;29;20453;-94
2022/03/28 11:05:14;;;;;;;44.50;40.30;;;;;;;;;;5124045;23;20502;-94
2022/03/28 11:07:42;;;;;;;45.30;40.37;;;;;;;;;;4987763;28;20545;-96
2022/03/28 11:10:13;;;;;;;42.30;37.70;;;;;;;;;;4995291;28;20440;-96
2022/03/28 11:12:42;;;;;;;44.23;39.60;;;;;;;;;;4966149;28;20439;-96
2022/03/28 11:15:18;;;;;;;41.83;37.60;;;;;;;;;;4979861;28;20498;-94
2022/03/28 11:17:57;;;;;;;44.30;38.47;;;;;;;;;;4979305;28;20553;-95
2022/03/28 11:20:26;;;;;;;44.10;39.40;;;;;;;;;;4983806;28;20418;-94
2022/03/28 11:22:55;;;;;;;43.07;38.30;;;;;;;;;;4985535;28;20458;-95
2022/03/28 11:25:30;;;;;;;43.77;39.20;;;;;;;;;;4984985;28;20913;-94
2022/03/28 11:28:03;;;;;;;42.10;37.60;;;;;;;;;;4967773;28;20560;-96
2022/03/28 11:30:31;;;;;;;42.77;38.17;;;;;;;;;;4986569;28;20443;-95
2022/03/28 11:33:00;;;;;;;45.20;40.67;;;;;;;;;;4985379;28;20524;-95
2022/03/28 11:35:28;;;;;;;42.30;37.97;;;;;;;;;;4985902;28;20489;-95
2022/03/28 11:37:56;;;;;;;42.73;38.47;;;;;;;;;;4986711;28;20454;-95
2022/03/28 11:40:23;;;;;;;43.13;38.80;;;;;;;;;;4985510;28;20459;-95
2022/03/28 11:42:50;;;;;;;43.03;38.63;;;;;;;;;;4986123;28;20435;-95
2022/03/28 11:45:18;;;;;;;41.37;37.10;;;;;;;;;;4985836;28;20532;-92
2022/03/28 11:47:54;;;;;;;44.13;39.43;;;;;;;;;;4980621;28;20418;-92
2022/03/28 11:50:22;;;;;;;42.93;38.53;;;;;;;;;;4977642;28;20437;-91
2022/03/28 11:52:50;;;;;;;43.40;39.20;;;;;;;;;;4978623;28;20433;-93
2022/03/28 11:55:24;;;;;;;42.70;38.50;;;;;;;;;;4980132;28;20934;-95
2022/03/28 12:00:37;;;;;;;46.20;41.60;;;;;;;;;;4982217;28;20396;-88
2022/03/28 12:03:06;;;;;;;41.47;37.17;;;;;;;;;;4977929;28;20410;-93
2022/03/28 12:05:35;;;;;;;44.23;39.60;;;;;;;;;;4978218;28;20452;-92
2022/03/28 12:08:03;;;;;;;42.90;38.60;;;;;;;;;;4977784;28;20414;-91
2022/03/28 12:10:31;;;;;;;44.93;40.63;;;;;;;;;;4977321;28;20406;-90
2022/03/28 12:13:00;;;;;;;44.23;39.87;;;;;;;;;;4976991;28;20425;-92
2022/03/28 12:15:29;;;;;;;42.43;38.03;;;;;;;;;;4978611;28;20502;-93
2022/03/28 12:17:59;;;;;;;43.00;38.50;;;;;;;;;;4961553;28;20477;-92
2022/03/28 12:20:29;;;;;;;44.27;39.87;;;;;;;;;;4977492;28;20433;-93
2022/03/28 12:22:56;;;;;;;43.07;38.60;;;;;;;;;;4959524;28;20819;-93
2022/03/28 12:25:24;;;;;;;44.07;39.37;;;;;;;;;;4976616;28;20426;-92
2022/03/28 12:27:53;;;;;;;41.87;37.47;;;;;;;;;;4959654;28;20479;-94
2022/03/28 12:30:20;;;;;;;41.03;37.13;;;;;;;;;;4976939;28;20447;-90
2022/03/28 12:32:48;;;;;;;42.20;37.97;;;;;;;;;;4976505;28;20439;-94
2022/03/28 12:35:17;;;;;;;41.70;37.80;;;;;;;;;;4977081;28;20565;-93
2022/03/28 12:37:56;;;;;;;41.40;37.07;;;;;;;;;;4978984;28;20447;-95
2022/03/28 12:40:27;;;;;;;43.40;39.23;;;;;;;;;;4977381;28;20450;-95
2022/03/28 12:42:55;;;;;;;41.97;37.93;;;;;;;;;;4976421;28;20793;-91
2022/03/28 12:45:26;;;;;;;40.53;36.50;;;;;;;;;;4975960;28;20438;-91
2022/03/28 12:47:58;;;;;;;40.30;35.87;;;;;;;;;;4976672;28;20418;-86
2022/03/28 12:50:26;;;;;;;39.87;35.67;;;;;;;;;;4975885;28;20504;-86
2022/03/28 12:53:09;;;;;;;40.80;36.97;;;;;;;;;;4983930;28;20440;-94
2022/03/28 12:55:38;;;;;;;39.43;35.47;;;;;;;;;;4974407;28;20559;-89
2022/03/28 12:58:07;;;;;;;39.27;35.10;;;;;;;;;;4975793;28;20409;-86
2022/03/28 13:00:35;;;;;;;40.10;36.20;;;;;;;;;;4958749;28;20473;-88
2022/03/28 13:03:05;;;;;;;42.63;38.33;;;;;;;;;;4977140;28;20450;-92
2022/03/28 13:05:34;;;;;;;44.23;39.63;;;;;;;;;;4975954;28;20412;-84
2022/03/28 13:08:06;;;;;;;42.17;37.80;;;;;;;;;;4975532;28;20472;-83
2022/03/28 13:10:35;;;;;;;42.10;37.87;;;;;;;;;;4975341;28;20443;-89
2022/03/28 13:13:04;;;;;;;42.77;38.73;;;;;;;;;;4975302;28;20455;-85
2022/03/28 13:15:33;;;;;;;43.03;38.90;;;;;;;;;;4975319;28;20508;-85
2022/03/28 13:18:05;;;;;;;42.33;37.90;;;;;;;;;;4975206;28;20446;-84
2022/03/28 13:20:33;;;;;;;42.73;38.63;;;;;;;;;;4975276;28;20429;-86
2022/03/28 13:23:01;;;;;;;46.67;39.00;;;;;;;;;;4975193;28;20418;-85
2022/03/28 13:25:29;;;;;;;41.40;37.17;;;;;;;;;;4957628;28;20757;-85
2022/03/28 13:28:04;;;;;;;38.80;35.00;;;;;;;;;;4975163;28;20871;-85
2022/03/28 13:30:35;;;;;;;40.33;36.70;;;;;;;;;;4975016;28;20919;-86
2022/03/28 13:33:04;;;;;;;42.03;37.97;;;;;;;;;;4974357;28;20780;-85
2022/03/28 13:35:31;;;;;;;39.83;36.43;;;;;;;;;;4974785;28;20472;-86
2022/03/28 13:37:59;;;;;;;45.70;38.47;;;;;;;;;;4974711;28;20439;-86
2022/03/28 13:40:27;;;;;;;41.13;37.30;;;;;;;;;;4974973;28;20417;-86
2022/03/28 13:42:55;;;;;;;41.13;37.10;;;;;;;;;;4974524;28;20416;-86
2022/03/28 13:45:23;;;;;;;39.87;36.23;;;;;;;;;;4974967;28;20413;-85
2022/03/28 13:47:53;;;;;;;41.93;37.90;;;;;;;;;;4974788;28;20516;-86
2022/03/28 13:50:21;;;;;;;37.60;34.10;;;;;;;;;;4975033;28;20467;-86
2022/03/28 13:52:48;;;;;;;38.30;34.90;;;;;;;;;;4974737;28;20417;-86
2022/03/28 13:55:17;;;;;;;41.53;37.30;;;;;;;;;;4974834;28;20954;-85
2022/03/28 13:57:44;;;;;;;41.37;37.47;;;;;;;;;;4974645;28;20444;-86
2022/03/28 14:00:12;;;;;;;42.60;35.37;;;;;;;;;;4974888;28;20776;-86
2022/03/28 14:02:39;;;;;;;40.27;36.40;;;;;;;;;;4974443;28;20428;-86
2022/03/28 14:05:10;;;;;;;38.43;35.23;;;;;;;;;;4957414;28;20484;-86
2022/03/28 14:07:37;;;;;;;39.97;36.23;;;;;;;;;;4974063;28;20479;-86
2022/03/28 14:10:05;;;;;;;38.93;35.30;;;;;;;;;;4974534;28;20450;-86
2022/03/28 14:12:32;;;;;;;37.50;33.87;;;;;;;;;;4974230;28;20443;-86
2022/03/28 14:15:00;;;;;;;40.80;37.10;;;;;;;;;;4974638;28;20472;-85
2022/03/28 14:17:28;;;;;;;38.80;35.23;;;;;;;;;;4974442;28;20438;-85
2022/03/28 14:19:57;;;;;;;39.37;35.80;;;;;;;;;;4974399;28;20418;-86
2022/03/28 14:22:26;;;;;;;40.53;36.73;;;;;;;;;;4957807;28;20451;-84
2022/03/28 14:24:53;;;;;;;40.67;36.87;;;;;;;;;;4974240;28;20442;-86